Latest Weather Observations for Braidwood

IDN60801

Issued at 6:23 am EST Wednesday 22 September 2021 (issued every 10 minutes, with the page automatically refreshed every 10 minutes)

About weather observations | Map of weather stations | Latest weather observations for NSW | Other Formats
Station Details ID: 069132 Name: BRAIDWOOD RACECOURSE AWS Lat: -35.43 Lon: 149.78 Height: 665.2 m
Data from the previous 72 hours. | See also: Recent months at Braidwood
Date/Time
EST
Temp
°C
App
Temp
°C
Dew
Point
°C
Rel
Hum
%
Delta-T
°C
Wind Press
QNH
hPa
Press
MSL
hPa
Rain since
9am
mm
Dir  Spd
km/h
Gust
km/h
Spd
kts
Gust
kts
22/06:00am -2.3 -5.8 -3.1 94 0.2 NNW 6 6 3 3 1022.6 1022.6 0.0
22/05:30am -2.0 -4.4 -2.8 94 0.2 CALM 0 0 0 0 1022.3 1022.2 0.0
22/05:00am -1.6 -3.9 -2.3 95 0.2 CALM 0 0 0 0 1022.0 1022.0 0.0
22/04:30am -1.9 -4.3 -3.2 91 0.4 CALM 0 0 0 0 1021.9 1021.9 0.0
22/04:00am -1.1 -3.5 -2.8 88 0.5 CALM 0 0 0 0 1022.2 1022.1 0.0
22/03:30am 1.6 -0.4 0.1 90 0.6 CALM 0 0 0 0 1022.0 1022.0 0.0
22/03:00am 1.0 -1.1 -0.6 89 0.6 CALM 0 0 0 0 1022.2 1022.1 0.0
22/02:30am 1.7 -1.1 -0.1 88 0.7 NW 4 6 2 3 1022.5 1022.5 0.0
22/02:00am 2.4 -0.3 0.0 84 0.9 W 4 6 2 3 1022.8 1022.8 0.0
22/01:30am 2.0 -1.2 -0.7 82 1.0 W 6 7 3 4 1023.2 1023.2 0.0
22/01:00am 2.8 -0.9 -0.3 80 1.2 WSW 9 13 5 7 1023.4 1023.4 0.0
22/12:30am 3.0 0.2 -0.5 78 1.3 WSW 4 6 2 3 1023.8 1023.8 0.0
22/12:00am 3.5 0.2 0.0 78 1.4 W 7 13 4 7 1023.8 1023.8 0.0
 
Date/Time
EST
Temp
°C
App
Temp
°C
Dew
Point
°C
Rel
Hum
%
Delta-T
°C
Wind Press
QNH
hPa
Press
MSL
hPa
Rain since
9am
mm
Dir  Spd
km/h
Gust
km/h
Spd
kts
Gust
kts
21/11:30pm 3.0 -0.7 -0.1 80 1.2 WSW 9 13 5 7 1023.8 1023.8 0.0
21/11:00pm 2.2 -1.3 -1.4 77 1.3 WSW 7 11 4 6 1023.9 1023.9 0.0
21/10:30pm 4.7 1.3 -0.5 69 2.0 SW 7 11 4 6 1023.8 1023.8 0.0
21/10:00pm 4.6 0.8 -0.6 69 2.0 SSW 9 11 5 6 1023.8 1023.8 0.0
21/09:30pm 5.3 1.5 -0.9 64 2.4 SW 9 15 5 8 1023.6 1023.7 0.0
21/09:00pm 7.1 1.8 -0.4 59 3.0 SSW 17 20 9 11 1023.6 1023.7 0.0
21/08:30pm 6.6 1.7 -0.4 61 2.8 S 15 22 8 12 1023.8 1023.8 0.0
21/08:00pm 5.0 2.1 -1.4 63 2.4 SE 4 9 2 5 1022.5 1022.5 0.0
21/07:30pm 5.0 1.5 -1.4 63 2.5 SE 7 17 4 9 1022.2 1022.1 0.0
21/07:00pm 5.9 2.6 -1.3 60 2.8 E 6 7 3 4 1021.4 1021.4 0.0
21/06:30pm 5.6 2.2 -2.0 58 2.9 SE 6 9 3 5 1021.1 1021.1 0.0
21/06:00pm 7.3 3.0 -1.6 53 3.5 S 11 17 6 9 1020.7 1020.6 0.0
21/05:30pm 9.0 3.5 -2.0 46 4.4 S 17 30 9 16 1020.3 1020.3 0.0
21/05:00pm 10.2 5.1 -2.1 42 4.9 SW 15 24 8 13 1020.0 1020.0 0.0
21/04:30pm 10.5 3.7 -1.9 42 5.0 SSW 24 37 13 20 1019.8 1019.8 0.0
21/04:00pm 10.9 3.7 -2.1 40 5.2 SSW 26 39 14 21 1019.4 1019.3 0.0
21/03:30pm 10.4 4.1 -1.3 44 4.8 SSW 22 32 12 17 1019.3 1019.2 0.0
21/03:00pm 10.2 2.7 -1.2 45 4.6 S 28 41 15 22 1019.0 1018.9 0.0
21/02:30pm 11.4 4.9 0.5 47 4.7 S 24 37 13 20 1018.6 1018.6 0.0
21/02:00pm 11.2 5.1 0.3 47 4.6 SSW 22 39 12 21 1018.4 1018.4 0.0
21/01:30pm 10.9 4.7 -0.2 46 4.7 S 22 32 12 17 1018.2 1018.1 0.0
21/01:00pm 10.4 4.6 0.2 49 4.3 SSW 20 30 11 16 1018.2 1018.1 0.0
21/12:30pm 9.8 3.4 0.7 53 3.9 S 24 33 13 18 1018.2 1018.1 0.0
21/12:00pm 9.3 3.8 0.7 55 3.6 SSW 19 32 10 17 1018.3 1018.2 0.0
21/11:41am 9.0 1.9 1.4 59 3.3 S 28 46 15 25 1018.2 1018.1 0.0
21/11:30am 9.9 2.0 1.0 54 3.8 S 32 43 17 23 1018.2 1018.1 0.0
21/11:00am 8.9 2.0 0.4 55 3.5 S 26 39 14 21 1018.1 1018.0 0.0
21/10:30am 8.2 1.3 0.0 56 3.4 S 26 35 14 19 1017.7 1017.6 0.0
21/10:00am 8.3 -0.1 -0.7 53 3.6 SSW 33 54 18 29 1017.5 1017.4 0.0
21/09:55am 9.0 1.3 -0.1 53 3.8 SSW 30 54 16 29 1017.4 1017.3 0.0
21/09:30am 8.2 1.2 -0.3 55 3.5 SSW 26 43 14 23 1017.0 1016.9 0.0
21/09:00am 7.4 0.6 -1.5 53 3.5 SSW 24 33 13 18 1016.7 1016.6 0.2
21/08:30am 6.7 0.8 -0.5 60 2.9 SSW 20 32 11 17 1016.4 1016.3 0.2
21/08:00am 5.2 0.5 -1.5 62 2.6 SSW 13 20 7 11 1015.9 1015.8 0.2
21/07:30am 4.4 -2.0 -1.6 65 2.3 SSW 22 37 12 20 1015.5 1015.4 0.2
21/07:00am 2.8 -1.5 -1.5 73 1.6 SSW 11 17 6 9 1015.2 1015.1 0.2
21/06:30am -0.2 -3.2 -1.9 88 0.6 NW 4 7 2 4 1014.7 1014.6 0.2
21/06:00am -1.4 -5.0 -3.4 86 0.6 WNW 6 7 3 4 1014.2 1014.0 0.2
21/05:30am -0.4 -4.8 -2.1 88 0.6 W 11 13 6 7 1013.5 1013.4 0.2
21/05:00am -0.9 -4.6 -3.1 85 0.7 W 7 9 4 5 1013.2 1013.0 0.2
21/04:30am 1.1 -2.2 -1.6 82 1.0 NW 6 9 3 5 1012.8 1012.6 0.2
21/04:00am 2.3 -1.0 -1.0 79 1.2 WNW 6 11 3 6 1012.4 1012.3 0.2
21/03:30am 1.9 -2.0 -1.5 78 1.3 WSW 9 15 5 8 1012.3 1012.2 0.2
21/03:00am 2.2 -2.4 -0.7 81 1.1 W 13 20 7 11 1012.2 1012.1 0.2
21/02:30am -0.3 -3.1 -3.0 82 0.9 WSW 2 2 1 1 1012.1 1012.0 0.2
21/02:00am 2.5 -0.7 -0.8 79 1.3 WSW 6 9 3 5 1012.1 1012.0 0.2
21/01:30am 3.8 -0.6 0.1 77 1.5 W 13 19 7 10 1012.1 1012.0 0.2
21/01:00am 4.0 0.4 0.3 77 1.5 WSW 9 15 5 8 1012.3 1012.2 0.2
21/12:30am 3.8 -0.9 0.8 81 1.2 WNW 15 19 8 10 1012.2 1012.1 0.2
21/12:00am 4.5 -0.6 1.0 78 1.4 WNW 17 22 9 12 1012.2 1012.1 0.2
 
Date/Time
EST
Temp
°C
App
Temp
°C
Dew
Point
°C
Rel
Hum
%
Delta-T
°C
Wind Press
QNH
hPa
Press
MSL
hPa
Rain since
9am
mm
Dir  Spd
km/h
Gust
km/h
Spd
kts
Gust
kts
20/11:30pm 3.7 -0.3 0.6 80 1.2 WNW 11 15 6 8 1012.3 1012.2 0.2
20/11:00pm 4.4 0.1 0.9 78 1.4 WNW 13 17 7 9 1012.7 1012.5 0.2
20/10:30pm 4.6 0.3 1.3 79 1.4 WNW 13 20 7 11 1012.4 1012.3 0.2
20/10:00pm 3.9 0.5 1.8 86 0.9 NW 9 13 5 7 1012.3 1012.2 0.2
20/09:30pm 4.2 1.2 2.1 86 0.9 NW 7 15 4 8 1012.6 1012.4 0.2
20/09:00pm 4.0 0.7 2.4 89 0.7 NW 9 15 5 8 1012.8 1012.6 0.2
20/08:30pm 3.9 1.1 2.3 89 0.7 NNW 6 11 3 6 1012.8 1012.6 0.2
20/08:00pm 4.8 1.8 2.3 84 1.1 NNW 7 19 4 10 1012.8 1012.6 0.2
20/07:30pm 5.2 0.7 2.2 81 1.3 NW 15 28 8 15 1012.2 1012.1 0.2
20/07:00pm 4.8 2.4 2.0 82 1.2 NNE 4 9 2 5 1012.8 1012.6 0.2
20/06:30pm 5.4 2.3 1.3 75 1.7 WNW 7 19 4 10 1012.2 1012.1 0.2
20/06:00pm 5.8 0.3 1.7 75 1.7 NW 20 33 11 18 1011.0 1010.8 0.2
20/05:30pm 7.0 1.1 1.5 68 2.3 NW 22 35 12 19 1010.8 1010.7 0.2
20/05:00pm 7.0 1.1 1.5 68 2.3 WNW 22 35 12 19 1011.1 1010.9 0.2
20/04:30pm 7.6 1.6 1.0 63 2.8 WNW 22 33 12 18 1010.8 1010.7 0.2
20/04:00pm 7.8 1.6 2.3 68 2.4 WNW 24 39 13 21 1011.1 1010.9 0.2
20/03:30pm 8.1 0.6 3.6 73 2.0 W 32 52 17 28 1011.0 1010.8 0.2
20/03:14pm 8.4 1.6 5.3 81 1.4 WNW 30 50 16 27 1010.8 1010.7 0.2
20/03:00pm 8.9 1.8 5.6 80 1.6 WNW 32 44 17 24 1010.5 1010.3 0.0
20/02:30pm 10.8 1.4 4.5 65 2.9 WNW 43 70 23 38 1009.9 1009.7 0.0
20/02:00pm 13.7 4.1 3.5 50 4.8 WNW 43 61 23 33 1009.0 1008.8 0.0
20/01:30pm 14.7 5.2 4.7 51 4.8 WNW 44 69 24 37 1008.8 1008.6 0.0
20/01:00pm 15.3 4.6 4.4 48 5.3 WNW 50 82 27 44 1008.9 1008.7 0.0
20/12:30pm 16.2 7.2 4.6 46 5.7 WNW 41 65 22 35 1009.4 1009.1 0.0
20/12:00pm 15.6 4.3 3.7 45 5.7 WNW 52 76 28 41 1009.4 1009.1 0.0
20/11:30am 15.9 4.4 4.6 47 5.5 WNW 54 72 29 39 1009.5 1009.3 0.0
20/11:00am 15.7 5.4 4.7 48 5.4 WNW 48 69 26 37 1009.9 1009.7 0.0
20/10:34am 15.1 3.9 3.9 47 5.3 WNW 52 87 28 47 1009.8 1009.6 0.0
20/10:30am 15.1 5.4 3.9 47 5.3 WNW 44 65 24 35 1010.0 1009.8 0.0
20/10:00am 14.9 3.3 3.7 47 5.3 WNW 54 80 29 43 1009.8 1009.6 0.0
20/09:30am 14.9 5.3 4.3 49 5.1 WNW 44 69 24 37 1010.0 1009.8 0.0
20/09:03am 14.1 6.0 3.3 48 5.0 WNW 35 57 19 31 1010.1 1009.9 0.0
20/09:00am 14.3 6.7 4.0 50 4.9 WNW 33 50 18 27 1010.3 1010.1 0.0
20/08:30am 13.4 6.2 3.2 50 4.7 NW 30 54 16 29 1010.5 1010.3 0.0
20/08:17am 13.1 6.3 3.2 51 4.6 WNW 28 50 15 27 1010.7 1010.6 0.0
20/08:00am 12.8 6.9 3.7 54 4.3 NW 24 39 13 21 1010.8 1010.7 0.0
20/07:30am 12.3 7.0 3.0 53 4.3 NW 20 37 11 20 1011.2 1011.0 0.0
20/07:00am 10.5 7.3 3.1 60 3.3 NW 9 19 5 10 1011.6 1011.4 0.0
20/06:30am 8.3 5.5 1.9 64 2.8 N 6 9 3 5 1011.6 1011.4 0.0
20/06:00am 7.1 4.1 1.0 65 2.5 NNW 6 9 3 5 1011.8 1011.6 0.0
20/05:30am 7.5 4.4 1.4 65 2.6 N 7 15 4 8 1011.7 1011.5 0.0
20/05:00am 7.7 4.6 1.3 64 2.7 N 7 13 4 7 1011.9 1011.7 0.0
20/04:30am 7.2 4.2 0.9 64 2.6 N 6 15 3 8 1012.1 1012.0 0.0
20/04:00am 7.9 4.8 1.3 63 2.8 NNE 7 15 4 8 1012.2 1012.1 0.0
20/03:30am 8.1 4.6 1.5 63 2.8 N 9 19 5 10 1012.3 1012.2 0.0
20/03:00am 8.0 4.9 1.4 63 2.8 N 7 17 4 9 1012.8 1012.6 0.0
20/02:30am 7.8 4.4 1.6 65 2.6 N 9 19 5 10 1013.3 1013.2 0.0
20/02:00am 8.1 4.7 2.1 66 2.6 N 9 19 5 10 1013.8 1013.7 0.0
20/01:30am 8.5 5.2 2.7 67 2.6 NNW 9 22 5 12 1014.4 1014.2 0.0
20/01:00am 8.1 4.9 3.0 70 2.2 NNW 9 20 5 11 1014.9 1014.8 0.0
20/12:30am 8.6 4.7 3.2 69 2.4 NW 13 22 7 12 1015.2 1015.1 0.0
20/12:00am 7.5 4.4 3.4 75 1.8 NW 9 15 5 8 1015.6 1015.5 0.0
 
Date/Time
EST
Temp
°C
App
Temp
°C
Dew
Point
°C
Rel
Hum
%
Delta-T
°C
Wind Press
QNH
hPa
Press
MSL
hPa
Rain since
9am
mm
Dir  Spd
km/h
Gust
km/h
Spd
kts
Gust
kts
19/11:30pm 7.6 4.5 3.8 77 1.7 NNW 9 19 5 10 1016.2 1016.1 0.0
19/11:00pm 6.6 4.0 3.4 80 1.4 NNW 6 11 3 6 1016.6 1016.5 0.0
19/10:30pm 6.3 3.7 3.1 80 1.4 NNW 6 13 3 7 1017.0 1016.9 0.0
19/10:00pm 6.7 4.1 3.1 78 1.6 NNW 6 9 3 5 1017.1 1017.1 0.0
19/09:30pm 7.1 4.4 2.6 73 1.9 NW 6 9 3 5 1017.4 1017.3 0.0
19/09:00pm 8.2 5.3 2.7 68 2.4 NW 7 13 4 7 1017.7 1017.6 0.0
19/08:30pm 10.1 5.7 2.7 60 3.3 NW 15 24 8 13 1017.7 1017.6 0.0
19/08:00pm 10.4 5.2 2.5 58 3.5 WNW 19 32 10 17 1017.9 1017.8 0.0
19/07:30pm 10.4 5.6 2.5 58 3.5 NW 17 28 9 15 1017.9 1017.8 0.0
19/07:00pm 10.6 6.2 2.7 58 3.5 WNW 15 26 8 14 1017.8 1017.7 0.0
19/06:30pm 10.9 5.5 2.7 57 3.7 NW 20 33 11 18 1017.6 1017.5 0.0
19/06:00pm 11.1 5.7 2.7 56 3.8 WNW 20 32 11 17 1017.4 1017.3 0.0
19/05:30pm 11.9 5.7 2.4 52 4.3 NW 24 37 13 20 1017.1 1017.1 0.0
19/05:00pm 12.6 6.1 2.7 51 4.5 WNW 26 43 14 23 1016.7 1016.6 0.0
19/04:30pm 13.3 7.2 2.5 48 4.9 WNW 24 37 13 20 1016.5 1016.4 0.0
19/04:00pm 13.6 6.4 3.1 49 4.9 WNW 30 43 16 23 1016.6 1016.5 0.0
19/03:30pm 13.6 6.0 3.1 49 4.9 NW 32 46 17 25 1016.8 1016.7 0.0
19/03:10pm 13.7 6.9 2.9 48 5.0 WNW 28 46 15 25 1016.9 1016.8 0.0
19/03:00pm 13.3 5.7 3.1 50 4.7 WNW 32 46 17 25 1017.1 1017.1 0.0
19/02:48pm 13.4 6.0 2.0 46 5.2 WNW 30 50 16 27 1016.9 1016.8 0.0
19/02:30pm 14.1 6.4 3.3 48 5.0 WNW 33 50 18 27 1017.2 1017.2 0.0
19/02:21pm 14.1 6.9 3.0 47 5.2 WNW 30 50 16 27 1017.2 1017.2 0.0
19/02:00pm 14.1 7.3 3.3 48 5.0 NW 28 41 15 22 1017.7 1017.6 0.0
19/01:30pm 13.9 8.1 4.2 52 4.6 NW 24 35 13 19 1018.0 1017.9 0.0
19/01:00pm 12.7 6.6 2.6 50 4.6 NW 24 41 13 22 1018.6 1018.6 0.0
19/12:30pm 13.2 7.6 3.6 52 4.5 NW 22 33 12 18 1019.3 1019.2 0.0
19/12:00pm 13.0 4.8 2.8 50 4.7 WNW 35 48 19 26 1019.5 1019.4 0.0
19/11:30am 12.9 5.4 3.3 52 4.4 NW 32 50 17 27 1019.5 1019.4 0.0
19/11:01am 11.6 3.3 2.4 53 4.1 NW 35 54 19 29 1019.4 1019.3 0.0
19/11:00am 11.6 2.9 1.8 51 4.3 NW 37 54 20 29 1019.4 1019.3 0.0
19/10:30am 12.6 4.9 3.6 54 4.2 NW 33 56 18 30 1019.8 1019.8 0.0
19/10:20am 12.6 5.2 4.1 56 4.0 NW 32 52 17 28 1020.0 1020.0 0.0
19/10:00am 12.2 4.7 3.4 55 4.0 NW 32 48 17 26 1020.2 1020.2 0.0
19/09:30am 11.8 4.2 3.1 55 4.0 NW 32 52 17 28 1019.9 1019.9 0.0
19/09:00am 11.0 4.3 3.5 60 3.4 NW 28 50 15 27 1020.0 1020.0 1.8
19/08:30am 10.2 4.5 3.0 61 3.2 NW 22 37 12 20 1020.3 1020.3 1.8
19/08:00am 9.1 4.4 3.3 67 2.6 NW 17 30 9 16 1020.7 1020.6 1.8
19/07:30am 8.0 5.4 4.2 77 1.7 N 7 15 4 8 1020.4 1020.4 1.8
19/07:00am 5.6 2.5 3.4 86 1.0 NNW 9 17 5 9 1020.2 1020.2 1.8
19/06:30am 4.8 1.9 2.7 86 0.9 NNW 7 13 4 7 1020.1 1020.1 1.8

Other formats

Comma delimited format used in spreadsheet applications
http://www.bom.gov.au/fwo/IDN60801/IDN60801.94927.axf

JavaScript Object Notation format (JSON) in row-major order
http://www.bom.gov.au/fwo/IDN60801/IDN60801.94927.json

Data quality

Most of these data are generated automatically and are frequently updated. Quality checks on data are not normally performed. It is possible for incorrect values to appear. Refer to information at About Latest Weather Observations and please check the disclaimer before using these data.